createdAt,value
2023-02-06T06:01:50.579Z,6.40
2023-02-06T06:04:17.214Z,6.22
2023-02-06T06:06:44.471Z,7.45
2023-02-06T06:09:11.307Z,7.05
2023-02-06T06:11:38.595Z,6.55
2023-02-06T06:14:06.074Z,7.55
2023-02-06T06:16:33.287Z,8.02
2023-02-06T06:18:59.838Z,6.93
2023-02-06T06:21:26.958Z,6.88
2023-02-06T06:23:53.635Z,6.82
2023-02-06T06:26:20.776Z,7.13
2023-02-06T06:28:48.344Z,7.85
2023-02-06T06:31:15.640Z,7.63
2023-02-06T06:33:42.248Z,6.85
2023-02-06T06:36:11.862Z,6.25
2023-02-06T06:38:40.245Z,6.45
2023-02-06T06:41:07.724Z,7.53
2023-02-06T06:43:34.460Z,6.90
2023-02-06T06:46:02.121Z,7.72
2023-02-06T06:48:28.829Z,7.55
2023-02-06T06:50:56.015Z,7.82
2023-02-06T06:53:22.537Z,8.18
2023-02-06T06:55:49.783Z,8.38
2023-02-06T06:58:16.349Z,8.38
2023-02-06T07:00:43.632Z,8.10
2023-02-06T07:03:11.659Z,7.70
2023-02-06T07:05:39.614Z,7.50
2023-02-06T07:08:06.278Z,7.93
2023-02-06T07:10:33.597Z,7.80
2023-02-06T07:13:00.200Z,7.75
2023-02-06T07:15:27.633Z,8.48
2023-02-06T07:17:54.142Z,9.20
2023-02-06T07:20:21.441Z,9.50
2023-02-06T07:22:49.629Z,9.02
2023-02-06T07:25:20.628Z,9.00
2023-02-06T07:27:47.783Z,8.57
2023-02-06T07:30:15.372Z,7.13
2023-02-06T07:32:41.879Z,7.03
2023-02-06T07:35:09.305Z,7.00
2023-02-06T07:37:35.841Z,7.32
2023-02-06T07:40:03.231Z,7.15
2023-02-06T07:42:29.794Z,8.43
2023-02-06T07:45:01.096Z,7.28
2023-02-06T07:47:27.642Z,7.97
2023-02-06T07:49:54.777Z,8.52
2023-02-06T07:52:22.347Z,7.18
2023-02-06T07:54:49.479Z,8.07
2023-02-06T07:57:16.898Z,7.63
2023-02-06T07:59:44.058Z,8.60
2023-02-06T08:02:12.365Z,9.43
2023-02-06T08:04:39.649Z,8.27
2023-02-06T08:07:07.161Z,8.20
2023-02-06T08:09:34.286Z,8.88
2023-02-06T08:12:00.807Z,9.32
2023-02-06T08:14:28.839Z,9.57
2023-02-06T08:16:55.427Z,8.70
2023-02-06T08:19:22.718Z,8.23
2023-02-06T08:21:49.873Z,8.13
2023-02-06T08:24:17.161Z,8.70
2023-02-06T08:26:43.910Z,8.15
2023-02-06T08:29:11.774Z,8.70
2023-02-06T08:31:40.806Z,7.38
2023-02-06T08:34:12.532Z,9.27
2023-02-06T08:36:39.565Z,8.75
2023-02-06T08:39:06.857Z,7.65
2023-02-06T08:41:39.181Z,7.90
2023-02-06T08:44:11.938Z,8.13
2023-02-06T08:46:39.411Z,8.00
2023-02-06T08:49:11.513Z,9.10
2023-02-06T08:51:38.168Z,8.23
2023-02-06T08:54:08.207Z,8.27
2023-02-06T08:59:02.790Z,7.40
2023-02-06T09:01:31.634Z,8.27
2023-02-06T09:04:01.515Z,8.40
2023-02-06T09:06:28.781Z,8.32
2023-02-06T09:08:57.321Z,8.82
2023-02-06T09:11:25.640Z,8.35
2023-02-06T09:13:56.132Z,9.50
2023-02-06T09:16:24.009Z,9.60
2023-02-06T09:18:54.199Z,10.07
2023-02-06T09:21:25.880Z,9.25
2023-02-06T09:23:56.861Z,9.98
2023-02-06T09:26:29.113Z,10.27
2023-02-06T09:28:58.774Z,9.95
2023-02-06T09:31:26.960Z,9.50
2023-02-06T09:33:54.227Z,11.43
2023-02-06T09:36:21.837Z,11.73
2023-02-06T09:38:52.181Z,11.70
2023-02-06T09:41:40.527Z,10.00
2023-02-06T09:44:10.372Z,10.85
2023-02-06T09:46:49.418Z,10.50
2023-02-06T09:49:25.747Z,10.32
2023-02-06T09:51:52.242Z,10.85
2023-02-06T09:54:49.622Z,9.13
2023-02-06T09:57:25.674Z,10.55
2023-02-06T10:00:24.269Z,10.40
2023-02-06T10:03:02.396Z,10.32
2023-02-06T10:05:59.862Z,11.20
2023-02-06T10:08:34.558Z,11.02
2023-02-06T10:11:09.533Z,12.60
2023-02-06T10:13:49.910Z,12.40
2023-02-06T10:16:26.214Z,12.45
2023-02-06T10:18:57.448Z,11.52
2023-02-06T10:21:35.968Z,13.48
2023-02-06T10:24:19.163Z,11.82
2023-02-06T10:26:47.875Z,13.18
2023-02-06T10:29:23.972Z,13.50
2023-02-06T10:31:59.537Z,12.68
2023-02-06T10:34:54.696Z,14.18
2023-02-06T10:37:37.918Z,12.95
2023-02-06T10:40:27.996Z,13.50
2023-02-06T10:43:25.543Z,14.27
2023-02-06T10:45:59.885Z,13.90
2023-02-06T10:48:35.489Z,14.45
2023-02-06T10:51:30.090Z,14.32
2023-02-06T10:54:25.327Z,14.73
2023-02-06T10:56:55.600Z,15.52
2023-02-06T10:59:31.336Z,12.73
2023-02-06T11:02:15.955Z,15.00
2023-02-06T11:04:52.675Z,13.35
2023-02-06T11:07:27.167Z,14.05
2023-02-06T11:09:54.540Z,13.48
2023-02-06T11:12:27.558Z,13.63
2023-02-06T11:14:57.933Z,15.43
2023-02-06T11:17:28.227Z,14.32
2023-02-06T11:20:05.590Z,14.70
2023-02-06T11:22:38.899Z,15.30
2023-02-06T11:25:31.685Z,16.83
2023-02-06T11:28:00.480Z,13.63
2023-02-06T11:30:40.458Z,13.32
2023-02-06T11:35:52.985Z,12.32
2023-02-06T11:38:22.891Z,14.27
2023-02-06T11:41:07.374Z,14.35
2023-02-06T11:43:48.853Z,15.20
2023-02-06T11:46:19.757Z,15.15
2023-02-06T11:49:01.576Z,13.90
2023-02-06T11:52:00.021Z,14.80
2023-02-06T11:54:34.089Z,14.57
2023-02-06T11:57:08.118Z,13.82
2023-02-06T11:59:52.411Z,15.63
2023-02-06T12:02:29.464Z,14.50
2023-02-06T12:05:12.163Z,14.35
2023-02-06T12:08:04.482Z,13.30
2023-02-06T12:10:39.069Z,14.38
2023-02-06T12:13:28.342Z,14.70
2023-02-06T12:15:58.891Z,14.45
2023-02-06T12:18:29.066Z,14.57
2023-02-06T12:21:08.677Z,14.13
2023-02-06T12:23:43.078Z,13.88
2023-02-06T12:26:15.309Z,14.27
2023-02-06T12:28:57.579Z,15.85
2023-02-06T12:31:44.468Z,15.50
2023-02-06T12:34:28.738Z,14.90
2023-02-06T12:37:16.280Z,15.85
2023-02-06T12:39:45.425Z,15.18
2023-02-06T12:42:39.587Z,14.05
2023-02-06T12:45:16.604Z,17.15
2023-02-06T12:47:56.617Z,14.13
2023-02-06T12:53:20.422Z,13.65
2023-02-06T12:56:04.470Z,16.05
2023-02-06T12:58:48.037Z,16.55
2023-02-06T13:01:30.169Z,15.80
2023-02-06T13:04:05.925Z,16.00
2023-02-06T13:06:46.733Z,14.35
2023-02-06T13:09:19.795Z,17.50
2023-02-06T13:11:47.664Z,19.08
2023-02-06T13:14:27.549Z,17.48
2023-02-06T13:17:11.936Z,15.90
2023-02-06T13:19:41.414Z,16.25
2023-02-06T13:24:36.507Z,15.75
2023-02-06T13:27:09.664Z,15.10
2023-02-06T13:29:39.845Z,16.60
2023-02-06T13:32:16.132Z,17.80
2023-02-06T13:34:44.028Z,19.77
2023-02-06T13:37:21.630Z,17.23
2023-02-06T13:40:09.408Z,16.63
2023-02-06T13:43:00.396Z,17.90
2023-02-06T13:45:57.109Z,16.38
2023-02-06T13:49:01.931Z,14.90
2023-02-06T13:51:34.480Z,15.82
2023-02-06T13:54:33.722Z,16.48
2023-02-06T13:57:18.176Z,14.32
2023-02-06T13:59:50.659Z,12.75
2023-02-06T14:02:23.351Z,10.18
2023-02-06T14:04:51.523Z,10.73
2023-02-06T14:07:27.620Z,9.43
2023-02-06T14:10:18.469Z,9.65
2023-02-06T14:13:09.288Z,9.70
2023-02-06T14:16:11.243Z,10.13
2023-02-06T14:18:44.510Z,10.82
2023-02-06T14:21:44.449Z,9.77
2023-02-06T14:24:19.953Z,10.57
2023-02-06T14:26:55.572Z,9.70
2023-02-06T14:29:47.938Z,7.88
2023-02-06T14:32:17.481Z,10.57
2023-02-06T14:35:09.063Z,8.30
2023-02-06T14:38:06.932Z,8.77
2023-02-06T14:40:41.548Z,10.63
2023-02-06T14:43:16.952Z,7.72
2023-02-06T14:46:04.220Z,8.20
2023-02-06T14:49:18.999Z,7.25
2023-02-06T14:51:51.164Z,7.43
2023-02-06T14:54:31.813Z,8.80
2023-02-06T14:57:01.186Z,7.50
2023-02-06T15:01:56.950Z,7.65
2023-02-06T15:04:30.802Z,7.03
2023-02-06T15:07:02.906Z,8.45
2023-02-06T15:09:35.589Z,8.02
2023-02-06T15:12:16.522Z,7.78
2023-02-06T15:14:52.200Z,7.50
2023-02-06T15:17:21.135Z,7.32
2023-02-06T15:19:48.679Z,8.52
2023-02-06T15:22:21.455Z,8.18
2023-02-06T15:24:48.578Z,7.88
2023-02-06T15:27:18.092Z,8.90
2023-02-06T15:29:52.328Z,7.15
2023-02-06T15:32:33.150Z,8.38
2023-02-06T15:35:01.623Z,9.02
2023-02-06T15:37:33.368Z,7.65
2023-02-06T15:40:25.262Z,8.23
2023-02-06T15:42:53.320Z,8.50
2023-02-06T15:45:24.533Z,9.32
2023-02-06T15:47:53.754Z,8.13
2023-02-06T15:50:25.232Z,9.38
2023-02-06T15:52:51.874Z,8.43
2023-02-06T15:55:52.701Z,7.43
2023-02-06T15:58:20.869Z,7.88
2023-02-06T16:00:55.682Z,8.27
2023-02-06T16:03:27.309Z,9.68
2023-02-06T16:05:56.337Z,7.78
2023-02-06T16:08:28.582Z,7.50
2023-02-06T16:11:30.269Z,7.30
2023-02-06T16:13:57.991Z,8.48
2023-02-06T16:16:26.608Z,8.35
2023-02-06T16:18:56.434Z,9.43
2023-02-06T16:21:28.008Z,9.73
2023-02-06T16:24:03.398Z,9.77
2023-02-06T16:26:32.672Z,8.88
2023-02-06T16:29:05.003Z,7.65
2023-02-06T16:31:35.190Z,7.80
2023-02-06T16:34:13.129Z,10.30
2023-02-06T16:36:39.707Z,10.13
2023-02-06T16:39:06.900Z,9.35
2023-02-06T16:41:35.963Z,7.85
2023-02-06T16:44:07.230Z,8.02
2023-02-06T16:46:33.947Z,8.77
2023-02-06T16:49:00.881Z,7.57
2023-02-06T16:51:30.063Z,8.85
2023-02-06T16:53:58.375Z,7.55
2023-02-06T16:56:25.033Z,9.20
2023-02-06T16:58:52.228Z,9.40
2023-02-06T17:01:25.645Z,8.88
2023-02-06T17:03:53.573Z,9.52
2023-02-06T17:06:23.818Z,12.40
2023-02-06T17:08:53.340Z,8.82
2023-02-06T17:11:20.018Z,7.88
2023-02-06T17:13:47.303Z,8.82
2023-02-06T17:16:21.087Z,8.55
2023-02-06T17:18:49.562Z,8.50
2023-02-06T17:21:18.407Z,7.38
2023-02-06T17:23:48.268Z,9.65
2023-02-06T17:26:18.191Z,9.25
2023-02-06T17:28:46.345Z,8.50
2023-02-06T17:31:13.214Z,9.98
2023-02-06T17:33:40.662Z,9.57
2023-02-06T17:36:13.101Z,9.23
2023-02-06T17:38:40.310Z,10.52
2023-02-06T17:41:06.884Z,10.38
2023-02-06T17:43:36.441Z,8.98
2023-02-06T17:46:06.340Z,10.68
2023-02-06T17:48:36.696Z,10.43
2023-02-06T17:51:04.999Z,7.63
2023-02-06T17:53:32.431Z,8.50
2023-02-06T17:56:05.262Z,8.10
2023-02-06T17:58:32.706Z,8.27
2023-02-06T18:00:59.471Z,9.63
2023-02-06T18:03:26.827Z,8.75
2023-02-06T18:06:00.422Z,7.82
2023-02-06T18:08:28.899Z,8.25
2023-02-06T18:10:56.017Z,7.82
2023-02-06T18:13:24.625Z,8.30
2023-02-06T18:15:53.854Z,7.30
2023-02-06T18:18:22.749Z,7.47
2023-02-06T18:20:49.720Z,10.68
2023-02-06T18:23:19.459Z,14.88
2023-02-06T18:25:46.095Z,13.43
2023-02-06T18:28:15.132Z,10.63
2023-02-06T18:30:42.274Z,10.30
2023-02-06T18:33:11.510Z,11.63
2023-02-06T18:35:44.849Z,13.10
2023-02-06T18:38:13.397Z,10.18
2023-02-06T18:40:41.307Z,9.98
2023-02-06T18:43:08.507Z,9.40
2023-02-06T18:45:37.722Z,10.45
2023-02-06T18:48:08.025Z,9.75
2023-02-06T18:50:38.202Z,9.45
2023-02-06T18:53:05.589Z,9.73
2023-02-06T18:55:34.863Z,10.57
2023-02-06T18:58:03.323Z,9.70
2023-02-06T19:00:30.387Z,10.75
2023-02-06T19:02:58.740Z,11.27
2023-02-06T19:05:25.441Z,10.27
2023-02-06T19:07:53.785Z,12.00
2023-02-06T19:10:21.523Z,11.55
2023-02-06T19:12:48.993Z,11.77
2023-02-06T19:15:16.173Z,12.70
2023-02-06T19:17:43.649Z,13.02
2023-02-06T19:20:11.462Z,12.07
2023-02-06T19:22:39.073Z,12.23
2023-02-06T19:25:10.601Z,11.82
2023-02-06T19:27:39.111Z,11.45
2023-02-06T19:30:07.784Z,12.77
2023-02-06T19:32:35.296Z,12.10
2023-02-06T19:35:03.253Z,12.77
2023-02-06T19:37:30.585Z,12.15
2023-02-06T19:39:57.206Z,11.75
2023-02-06T19:42:24.741Z,11.32
2023-02-06T19:44:54.041Z,11.18
2023-02-06T19:49:52.414Z,10.02
2023-02-06T19:52:20.707Z,10.57
2023-02-06T19:54:47.745Z,11.45
2023-02-06T19:57:16.227Z,11.02
2023-02-06T19:59:42.804Z,12.40
2023-02-06T20:02:14.512Z,11.65
2023-02-06T20:04:41.419Z,10.75
2023-02-06T20:07:08.785Z,11.20
2023-02-06T20:09:36.455Z,11.05
2023-02-06T20:12:03.898Z,11.98
2023-02-06T20:14:30.550Z,11.15
2023-02-06T20:16:57.825Z,11.93
2023-02-06T20:19:27.029Z,14.55
2023-02-06T20:21:57.385Z,13.90
2023-02-06T20:24:27.845Z,14.88
2023-02-06T20:26:58.230Z,14.77
2023-02-06T20:29:34.623Z,17.15
2023-02-06T20:32:03.078Z,16.20
2023-02-06T20:34:29.804Z,19.85
2023-02-06T20:36:57.284Z,16.50
2023-02-06T20:39:24.382Z,17.50
2023-02-06T20:41:51.910Z,14.68
2023-02-06T20:44:19.771Z,14.57
2023-02-06T20:46:47.742Z,14.88
2023-02-06T20:49:20.956Z,16.27
2023-02-06T20:51:49.652Z,15.38
2023-02-06T20:54:17.913Z,16.65
2023-02-06T20:56:45.785Z,18.40
2023-02-06T20:59:18.172Z,17.00
2023-02-06T21:01:45.524Z,16.23
2023-02-06T21:04:14.661Z,15.05
2023-02-06T21:06:42.221Z,14.25
2023-02-06T21:09:10.185Z,15.00
2023-02-06T21:11:41.153Z,16.20
2023-02-06T21:14:08.624Z,15.90
2023-02-06T21:16:40.574Z,14.93
2023-02-06T21:19:09.795Z,13.80
2023-02-06T21:21:38.071Z,14.43
2023-02-06T21:24:05.503Z,13.35
2023-02-06T21:26:33.365Z,14.35
2023-02-06T21:29:02.301Z,13.52
